createdAt,value
2019-05-30T00:01:20.362Z,77.95
2019-05-30T00:03:50.802Z,78.44
2019-05-30T00:06:21.676Z,78.64
2019-05-30T00:08:54.340Z,78.92
2019-05-30T00:11:25.130Z,79.18
2019-05-30T00:13:56.669Z,79.25
2019-05-30T00:16:28.736Z,78.96
2019-05-30T00:19:00.795Z,78.71
2019-05-30T00:21:32.140Z,78.58
2019-05-30T00:24:04.197Z,78.74
2019-05-30T00:26:35.095Z,78.71
2019-05-30T00:29:06.692Z,79.05
2019-05-30T00:31:37.588Z,79.21
2019-05-30T00:34:08.729Z,78.99
2019-05-30T00:36:39.543Z,79.23
2019-05-30T00:39:10.339Z,79.65
2019-05-30T00:41:41.010Z,79.15
2019-05-30T00:44:11.975Z,79.24
2019-05-30T00:46:42.928Z,79.40
2019-05-30T00:49:13.425Z,79.82
2019-05-30T00:51:44.214Z,80.34
2019-05-30T00:54:15.523Z,80.11
2019-05-30T00:56:47.830Z,79.70
2019-05-30T00:59:18.654Z,79.67
2019-05-30T01:01:49.266Z,79.67
2019-05-30T01:04:19.946Z,79.90
2019-05-30T01:06:50.650Z,80.56
2019-05-30T01:09:21.366Z,81.53
2019-05-30T01:11:51.926Z,81.90
2019-05-30T01:14:22.630Z,81.91
2019-05-30T01:16:54.073Z,82.21
2019-05-30T01:19:24.708Z,82.57
2019-05-30T01:21:57.057Z,82.92
2019-05-30T01:24:28.141Z,82.75
2019-05-30T01:27:01.321Z,82.52
2019-05-30T01:29:32.617Z,81.92
2019-05-30T01:32:22.186Z,82.07
2019-05-30T01:34:52.962Z,82.36
2019-05-30T01:37:24.702Z,82.53
2019-05-30T01:39:55.492Z,82.54
2019-05-30T01:42:26.410Z,82.63
2019-05-30T01:44:58.216Z,82.98
2019-05-30T01:47:29.250Z,82.68
2019-05-30T01:50:00.397Z,83.72
2019-05-30T01:52:32.530Z,84.05
2019-05-30T01:55:04.620Z,84.04
2019-05-30T01:57:35.378Z,83.84
2019-05-30T02:00:18.786Z,83.66
2019-05-30T02:02:39.756Z,83.22
2019-05-30T02:05:13.353Z,83.28
2019-05-30T02:07:45.129Z,83.56
2019-05-30T02:10:16.282Z,83.36
2019-05-30T02:12:47.131Z,83.12
2019-05-30T02:15:18.655Z,83.06
2019-05-30T02:17:49.559Z,83.20
2019-05-30T02:20:20.661Z,82.84
2019-05-30T02:22:51.298Z,82.64
2019-05-30T02:25:23.807Z,81.78
2019-05-30T02:27:54.720Z,80.62
2019-05-30T02:30:25.513Z,79.17
2019-05-30T02:32:57.158Z,78.06
2019-05-30T02:35:27.994Z,77.81
2019-05-30T02:37:58.673Z,76.66
2019-05-30T02:40:29.703Z,76.29
2019-05-30T02:43:01.213Z,75.91
2019-05-30T02:45:32.478Z,75.47
2019-05-30T02:48:03.898Z,75.70
2019-05-30T02:50:36.583Z,75.81
2019-05-30T02:53:08.752Z,76.16
2019-05-30T02:55:40.275Z,76.54
2019-05-30T02:58:12.980Z,76.84
2019-05-30T03:00:44.370Z,76.74
2019-05-30T03:03:15.157Z,76.55
2019-05-30T03:05:47.040Z,75.79
2019-05-30T03:08:18.421Z,74.80
2019-05-30T03:10:50.742Z,73.23
2019-05-30T03:13:22.936Z,70.44
2019-05-30T03:15:55.241Z,67.75
2019-05-30T03:18:25.927Z,65.17
2019-05-30T03:20:56.525Z,64.26
2019-05-30T03:23:27.425Z,62.17
2019-05-30T03:25:58.339Z,60.66
2019-05-30T03:28:29.235Z,59.30
2019-05-30T03:31:04.372Z,58.81
2019-05-30T03:33:40.243Z,57.65
2019-05-30T03:36:14.347Z,57.23
2019-05-30T03:38:41.055Z,57.15
2019-05-30T03:41:12.234Z,55.23
2019-05-30T03:43:45.651Z,54.66
2019-05-30T03:46:20.203Z,54.00
2019-05-30T03:48:54.334Z,54.03
2019-05-30T03:51:27.104Z,53.81
2019-05-30T03:53:57.670Z,53.31
2019-05-30T03:56:39.453Z,52.35
2019-05-30T03:59:41.345Z,52.11
2019-05-30T04:02:57.286Z,50.63
2019-05-30T04:05:32.169Z,50.39
2019-05-30T04:08:07.087Z,49.94
2019-05-30T04:10:41.533Z,49.19
2019-05-30T04:13:33.001Z,50.18
2019-05-30T04:16:03.399Z,49.25
2019-05-30T04:18:33.737Z,49.02
2019-05-30T04:21:04.179Z,49.21
2019-05-30T04:23:35.193Z,49.00
2019-05-30T04:26:07.414Z,48.51
2019-05-30T04:28:38.110Z,47.91
2019-05-30T04:31:09.941Z,47.32
2019-05-30T04:33:40.865Z,47.07
2019-05-30T04:36:12.492Z,46.39
2019-05-30T04:38:43.066Z,45.90
2019-05-30T04:41:15.706Z,45.21
2019-05-30T04:43:45.895Z,44.26
2019-05-30T04:46:18.632Z,44.45
2019-05-30T04:48:48.463Z,44.60
2019-05-30T04:51:21.223Z,43.43
2019-05-30T04:53:51.630Z,42.92
2019-05-30T04:56:23.174Z,42.72
2019-05-30T04:58:53.729Z,43.49
2019-05-30T05:01:24.445Z,44.15
2019-05-30T05:03:56.328Z,43.93
2019-05-30T05:06:27.140Z,43.08
2019-05-30T05:08:57.804Z,42.37
2019-05-30T05:11:28.429Z,41.23
2019-05-30T05:13:59.267Z,39.92
2019-05-30T05:16:35.490Z,38.19
2019-05-30T05:19:03.973Z,37.39
2019-05-30T05:21:34.821Z,36.17
2019-05-30T05:24:06.917Z,35.67
2019-05-30T05:26:37.831Z,34.51
2019-05-30T05:29:08.767Z,35.50
2019-05-30T05:31:59.702Z,35.93
2019-05-30T05:34:30.264Z,35.75
2019-05-30T05:37:01.250Z,34.94
2019-05-30T05:39:32.727Z,34.51
2019-05-30T05:42:03.400Z,33.88
2019-05-30T05:44:35.441Z,32.48
2019-05-30T05:47:06.590Z,32.48
2019-05-30T05:49:37.195Z,32.87
2019-05-30T05:52:11.828Z,32.87
2019-05-30T05:54:41.132Z,33.34
2019-05-30T05:57:12.530Z,32.13
2019-05-30T05:59:43.486Z,31.21
2019-05-30T06:02:14.299Z,29.98
2019-05-30T06:04:45.846Z,27.73
2019-05-30T06:07:18.225Z,26.83
2019-05-30T06:09:52.354Z,27.32
2019-05-30T06:12:55.716Z,26.63
2019-05-30T06:15:27.355Z,25.58
2019-05-30T06:18:15.410Z,25.11
2019-05-30T06:20:48.104Z,24.65
2019-05-30T06:23:25.726Z,25.11
2019-05-30T06:26:20.392Z,25.14
2019-05-30T06:29:03.155Z,25.56
2019-05-30T06:31:52.832Z,25.21
2019-05-30T06:34:46.906Z,24.59
2019-05-30T06:37:19.253Z,25.42
2019-05-30T06:39:51.389Z,25.01
2019-05-30T06:42:22.288Z,25.21
2019-05-30T06:44:59.340Z,25.35
2019-05-30T06:47:30.562Z,24.97
2019-05-30T06:50:01.497Z,25.83
2019-05-30T06:52:32.377Z,23.82
2019-05-30T06:55:05.783Z,23.18
2019-05-30T06:57:53.963Z,23.13
2019-05-30T07:00:26.495Z,22.47
2019-05-30T07:03:01.193Z,21.57
2019-05-30T07:05:34.284Z,21.98
2019-05-30T07:08:05.742Z,22.61
2019-05-30T07:10:36.528Z,22.78
2019-05-30T07:13:07.594Z,24.08
2019-05-30T07:15:42.509Z,24.55
2019-05-30T07:18:13.311Z,23.65
2019-05-30T07:20:55.045Z,24.17
2019-05-30T07:23:39.464Z,23.79
2019-05-30T07:26:09.947Z,25.11
2019-05-30T07:28:40.366Z,27.91
2019-05-30T07:31:11.107Z,29.39
2019-05-30T07:33:41.793Z,32.24
2019-05-30T07:36:13.990Z,34.43
2019-05-30T07:38:44.825Z,37.81
2019-05-30T07:41:17.480Z,34.85
2019-05-30T07:43:48.185Z,34.45
2019-05-30T07:46:18.886Z,33.90
2019-05-30T07:48:49.692Z,33.27
2019-05-30T07:51:20.415Z,33.21
2019-05-30T07:54:00.970Z,34.66
2019-05-30T07:56:31.417Z,34.27
2019-05-30T07:59:01.929Z,34.76
2019-05-30T08:01:32.633Z,35.28
2019-05-30T08:04:04.879Z,36.87
2019-05-30T08:06:59.469Z,40.82
2019-05-30T08:09:32.932Z,42.89
2019-05-30T08:12:04.716Z,43.35
2019-05-30T08:14:35.370Z,44.54
2019-05-30T08:17:06.573Z,45.71
2019-05-30T08:20:07.745Z,46.84
2019-05-30T08:22:55.988Z,46.57
2019-05-30T08:25:39.988Z,48.86
2019-05-30T08:28:18.862Z,48.57
2019-05-30T08:30:52.704Z,47.86
2019-05-30T08:33:23.499Z,48.35
2019-05-30T08:35:53.863Z,51.08
2019-05-30T08:38:24.300Z,51.39
2019-05-30T08:40:54.822Z,50.47
2019-05-30T08:43:25.258Z,49.74
2019-05-30T08:45:56.122Z,49.40
2019-05-30T08:48:26.504Z,49.47
2019-05-30T08:50:56.862Z,49.34
2019-05-30T08:53:27.312Z,49.04
2019-05-30T08:55:58.007Z,49.31
2019-05-30T08:58:28.334Z,49.76
2019-05-30T09:00:58.780Z,49.45
2019-05-30T09:03:29.574Z,49.96
2019-05-30T09:06:04.215Z,50.31
2019-05-30T09:08:32.401Z,50.83
2019-05-30T09:11:02.844Z,49.75
2019-05-30T09:13:33.701Z,51.54
2019-05-30T09:16:04.878Z,50.21
2019-05-30T09:18:37.969Z,49.77
2019-05-30T09:21:08.684Z,50.12
2019-05-30T09:23:41.017Z,51.04
2019-05-30T09:26:12.288Z,50.32
2019-05-30T09:28:44.238Z,50.72
2019-05-30T09:31:14.933Z,51.66
2019-05-30T09:33:46.649Z,50.62
2019-05-30T09:36:17.476Z,50.54
2019-05-30T09:38:49.641Z,51.27
2019-05-30T09:41:21.181Z,50.75
2019-05-30T09:43:51.727Z,48.87
2019-05-30T09:46:22.719Z,50.36
2019-05-30T09:48:53.719Z,49.73
2019-05-30T09:51:24.523Z,50.19
2019-05-30T09:53:55.391Z,50.39
2019-05-30T09:56:26.259Z,50.78
2019-05-30T09:58:56.925Z,50.45
2019-05-30T10:01:27.700Z,50.74
2019-05-30T10:03:58.663Z,50.84
2019-05-30T10:06:30.276Z,50.02
2019-05-30T10:09:01.265Z,51.44
2019-05-30T10:11:33.112Z,50.79
2019-05-30T10:14:04.158Z,50.06
2019-05-30T10:16:37.392Z,49.96
2019-05-30T10:19:08.493Z,51.49
2019-05-30T10:21:39.326Z,50.45
2019-05-30T10:24:11.587Z,49.00
2019-05-30T10:26:43.307Z,50.54
2019-05-30T10:29:14.002Z,50.21
2019-05-30T10:31:46.391Z,50.69
2019-05-30T10:34:17.342Z,51.53
2019-05-30T10:36:49.190Z,52.63
2019-05-30T10:39:20.648Z,52.68
2019-05-30T10:41:51.272Z,52.36
2019-05-30T10:44:23.116Z,53.56
2019-05-30T10:46:54.585Z,53.52
2019-05-30T10:49:34.127Z,53.42
2019-05-30T10:51:59.446Z,52.25
2019-05-30T10:54:31.660Z,52.50
2019-05-30T10:57:02.509Z,51.28
2019-05-30T10:59:33.220Z,51.04
2019-05-30T11:02:04.071Z,52.28
2019-05-30T11:04:34.969Z,54.13
2019-05-30T11:07:14.485Z,54.88
2019-05-30T11:09:48.749Z,56.41
2019-05-30T11:12:19.470Z,58.02
2019-05-30T11:14:51.574Z,59.49
2019-05-30T11:17:22.531Z,61.05
2019-05-30T11:19:54.039Z,60.09
2019-05-30T11:22:26.921Z,60.14
2019-05-30T11:24:59.389Z,59.73
2019-05-30T11:27:30.339Z,59.47
2019-05-30T11:30:01.356Z,59.36
2019-05-30T11:32:32.874Z,60.05
2019-05-30T11:35:03.732Z,59.98
2019-05-30T11:37:37.661Z,58.85
2019-05-30T11:40:10.358Z,59.38
2019-05-30T11:42:41.273Z,59.23
2019-05-30T11:45:12.372Z,60.10
2019-05-30T11:47:43.437Z,59.08
2019-05-30T11:50:16.314Z,60.46
2019-05-30T11:52:49.814Z,61.49
2019-05-30T11:55:21.671Z,62.15
2019-05-30T11:57:52.379Z,63.00
2019-05-30T12:00:23.665Z,63.55
2019-05-30T12:02:54.480Z,62.58
2019-05-30T12:05:25.597Z,62.87
2019-05-30T12:07:56.994Z,62.08
2019-05-30T12:10:29.070Z,60.95
2019-05-30T12:12:59.851Z,62.92
2019-05-30T12:15:30.951Z,62.63
2019-05-30T12:18:02.456Z,63.16
2019-05-30T12:20:33.336Z,62.73
2019-05-30T12:23:03.982Z,63.10
2019-05-30T12:25:34.931Z,62.92
2019-05-30T12:30:54.388Z,63.34
2019-05-30T12:33:11.934Z,62.20
2019-05-30T12:35:42.894Z,62.17
2019-05-30T12:38:14.783Z,63.39
2019-05-30T12:40:45.624Z,63.80
2019-05-30T12:43:16.522Z,63.30
2019-05-30T12:45:48.716Z,61.70
2019-05-30T12:48:19.764Z,62.60
2019-05-30T12:50:50.733Z,62.52
2019-05-30T12:53:21.258Z,62.61
2019-05-30T12:55:54.321Z,62.17
2019-05-30T12:58:25.243Z,60.85
2019-05-30T13:00:56.680Z,59.72
2019-05-30T13:03:27.945Z,60.82
2019-05-30T13:05:59.190Z,60.44
2019-05-30T13:08:30.262Z,61.41
2019-05-30T13:11:01.757Z,61.29
2019-05-30T13:13:32.744Z,61.01
2019-05-30T13:16:07.160Z,60.15
2019-05-30T13:18:36.777Z,60.68
2019-05-30T13:21:08.933Z,60.79
2019-05-30T20:36:20.006Z,63.64
2019-05-30T20:39:15.040Z,63.63
2019-05-30T20:41:47.712Z,63.67
2019-05-30T20:44:18.973Z,63.68
2019-05-30T20:46:51.309Z,63.72
2019-05-30T20:49:22.713Z,63.73
2019-05-30T20:51:53.511Z,63.85
2019-05-30T20:54:26.010Z,64.08
2019-05-30T20:56:57.447Z,63.96
2019-05-30T20:59:31.502Z,63.71
2019-05-30T21:02:05.066Z,63.81
2019-05-30T21:05:04.679Z,63.64
2019-05-30T21:07:37.773Z,63.63
2019-05-30T21:10:08.869Z,63.47
2019-05-30T21:12:44.439Z,63.36
2019-05-30T21:15:15.962Z,63.20
2019-05-30T21:17:48.155Z,63.39
2019-05-30T21:20:23.076Z,63.25
2019-05-30T21:22:53.875Z,63.33
2019-05-30T21:25:24.618Z,63.50
2019-05-30T21:27:55.541Z,63.80
2019-05-30T21:30:27.013Z,63.95
2019-05-30T21:32:59.108Z,64.73
2019-05-30T21:35:37.572Z,65.79
2019-05-30T21:38:08.635Z,66.54
2019-05-30T21:40:44.453Z,68.20
2019-05-30T21:43:15.599Z,68.67
2019-05-30T21:45:48.962Z,68.68
2019-05-30T21:48:20.054Z,68.62
2019-05-30T21:50:51.221Z,68.03
2019-05-30T21:53:22.052Z,67.69
2019-05-30T21:55:55.959Z,68.67
2019-05-30T21:58:28.830Z,68.54
2019-05-30T22:01:36.611Z,71.84
2019-05-30T22:04:08.552Z,71.81
2019-05-30T22:06:40.745Z,71.86
2019-05-30T22:09:12.776Z,71.63
2019-05-30T22:11:43.757Z,70.93
2019-05-30T22:14:16.587Z,70.36
2019-05-30T22:16:48.032Z,69.56
2019-05-30T22:19:18.697Z,69.31
2019-05-30T22:21:50.246Z,69.50
2019-05-30T22:24:22.412Z,69.75
2019-05-30T22:26:53.275Z,69.26
2019-05-30T22:29:25.275Z,69.74
2019-05-30T22:31:56.697Z,69.33
2019-05-30T22:34:27.541Z,69.35
2019-05-30T22:36:58.093Z,69.32
2019-05-30T22:39:28.898Z,69.18
2019-05-30T22:41:59.448Z,69.01
2019-05-30T22:44:30.179Z,69.26
2019-05-30T22:47:01.128Z,69.96
2019-05-30T22:49:31.973Z,70.28
2019-05-30T22:52:04.434Z,69.93
2019-05-30T22:54:36.528Z,69.77
2019-05-30T22:57:07.691Z,69.67
2019-05-30T22:59:38.394Z,69.23
2019-05-30T23:02:10.071Z,68.70
2019-05-30T23:04:40.682Z,68.68
2019-05-30T23:07:12.404Z,68.53
2019-05-30T23:09:43.598Z,68.59
2019-05-30T23:12:14.811Z,68.56
2019-05-30T23:14:46.717Z,68.41
2019-05-30T23:17:18.065Z,68.57
2019-05-30T23:19:48.863Z,68.27
2019-05-30T23:22:19.894Z,68.32
2019-05-30T23:24:52.276Z,68.19
2019-05-30T23:27:23.646Z,68.15
2019-05-30T23:29:54.471Z,68.31
2019-05-30T23:32:25.339Z,68.11
2019-05-30T23:34:56.477Z,68.19
2019-05-30T23:37:27.558Z,68.20
2019-05-30T23:39:58.998Z,68.45
2019-05-30T23:42:29.441Z,68.47
2019-05-30T23:45:00.164Z,68.24
2019-05-30T23:47:31.033Z,68.10
2019-05-30T23:50:01.825Z,67.67
2019-05-30T23:52:32.765Z,67.49
2019-05-30T23:55:03.455Z,66.90
2019-05-30T23:57:34.252Z,66.35
